createdAt,value
2019-04-04T00:00:05.661Z,27.60
2019-04-04T00:01:08.025Z,27.60
2019-04-04T00:01:48.137Z,27.60
2019-04-04T00:02:27.351Z,27.60
2019-04-04T00:03:05.864Z,27.60
2019-04-04T00:03:44.384Z,27.60
2019-04-04T00:04:22.924Z,27.60
2019-04-04T00:05:01.437Z,27.60
2019-04-04T00:05:40.040Z,27.60
2019-04-04T00:06:18.521Z,27.60
2019-04-04T00:06:58.084Z,27.60
2019-04-04T00:07:37.131Z,27.60
2019-04-04T00:08:16.136Z,27.60
2019-04-04T00:08:54.662Z,27.60
2019-04-04T00:09:33.751Z,27.60
2019-04-04T00:10:12.250Z,27.60
2019-04-04T00:10:51.012Z,27.60
2019-04-04T00:11:29.487Z,27.70
2019-04-04T00:12:08.078Z,27.70
2019-04-04T00:12:47.145Z,27.70
2019-04-04T00:13:25.664Z,27.70
2019-04-04T00:14:04.074Z,27.70
2019-04-04T00:14:43.893Z,27.70
2019-04-04T00:15:22.421Z,27.70
2019-04-04T00:16:00.869Z,27.70
2019-04-04T00:16:39.313Z,27.70
2019-04-04T00:17:17.753Z,27.70
2019-04-04T00:17:56.197Z,27.70
2019-04-04T00:18:34.642Z,27.80
2019-04-04T00:19:13.160Z,27.70
2019-04-04T00:19:51.627Z,27.80
2019-04-04T00:20:31.863Z,27.80
2019-04-04T00:21:10.217Z,27.80
2019-04-04T00:21:48.690Z,27.80
2019-04-04T00:22:27.204Z,27.80
2019-04-04T00:23:07.473Z,27.80
2019-04-04T00:23:46.110Z,27.80
2019-04-04T00:24:24.620Z,27.80
2019-04-04T00:25:03.180Z,27.80
2019-04-04T00:25:41.683Z,27.70
2019-04-04T00:26:20.104Z,27.70
2019-04-04T00:26:58.551Z,27.70
2019-04-04T00:27:36.997Z,27.70
2019-04-04T00:28:16.234Z,27.70
2019-04-04T00:28:54.705Z,27.70
2019-04-04T00:29:33.157Z,27.80
2019-04-04T00:30:13.673Z,27.80
2019-04-04T00:30:52.189Z,27.80
2019-04-04T00:31:30.688Z,27.80
2019-04-04T00:32:09.263Z,27.80
2019-04-04T00:32:47.735Z,27.80
2019-04-04T00:33:26.368Z,27.80
2019-04-04T00:34:04.923Z,27.80
2019-04-04T00:34:43.410Z,27.80
2019-04-04T00:35:21.916Z,27.80
2019-04-04T00:36:00.674Z,27.80
2019-04-04T00:36:40.260Z,27.80
2019-04-04T00:37:18.753Z,27.80
2019-04-04T00:37:57.306Z,27.80
2019-04-04T00:38:36.065Z,27.80
2019-04-04T00:39:15.719Z,27.80
2019-04-04T00:39:54.214Z,27.80
2019-04-04T00:40:32.739Z,27.80
2019-04-04T00:41:12.833Z,27.80
2019-04-04T00:41:51.115Z,27.80
2019-04-04T00:42:29.580Z,27.80
2019-04-04T00:43:08.037Z,27.80
2019-04-04T00:43:46.441Z,27.80
2019-04-04T00:44:24.880Z,27.80
2019-04-04T00:45:03.372Z,27.80
2019-04-04T00:45:43.042Z,27.80
2019-04-04T00:46:21.661Z,27.80
2019-04-04T00:47:01.518Z,27.80
2019-04-04T00:47:40.018Z,27.80
2019-04-04T00:48:18.492Z,27.80
2019-04-04T00:48:56.937Z,27.80
2019-04-04T00:49:35.552Z,27.80
2019-04-04T00:50:14.664Z,27.80
2019-04-04T00:50:53.207Z,27.80
2019-04-04T00:51:31.685Z,27.90
2019-04-04T00:52:10.853Z,27.90
2019-04-04T00:52:49.380Z,27.90
2019-04-04T00:53:27.818Z,27.90
2019-04-04T00:54:06.343Z,27.90
2019-04-04T00:54:44.992Z,27.90
2019-04-04T00:55:23.985Z,27.90
2019-04-04T00:56:02.474Z,27.80
2019-04-04T00:56:41.010Z,27.80
2019-04-04T00:57:20.535Z,27.90
2019-04-04T00:57:59.054Z,27.90
2019-04-04T00:58:37.792Z,27.90
2019-04-04T00:59:16.387Z,27.90
2019-04-04T00:59:54.981Z,28.00
2019-04-04T01:00:33.614Z,28.00
2019-04-04T01:01:12.248Z,28.00
2019-04-04T01:01:51.109Z,28.00
2019-04-04T01:02:29.835Z,28.10
2019-04-04T01:03:08.660Z,28.10
2019-04-04T01:03:47.485Z,28.10
2019-04-04T01:04:26.317Z,28.10
2019-04-04T01:05:05.124Z,28.10
2019-04-04T01:05:43.946Z,28.10
2019-04-04T01:06:22.794Z,28.10
2019-04-04T01:07:03.009Z,28.10
2019-04-04T01:07:41.765Z,28.10
2019-04-04T01:08:20.608Z,28.10
2019-04-04T01:08:59.377Z,28.10
2019-04-04T01:09:38.139Z,28.10
2019-04-04T01:10:18.822Z,28.10
2019-04-04T01:10:57.068Z,28.10
2019-04-04T01:11:35.854Z,28.10
2019-04-04T01:12:14.694Z,28.10
2019-04-04T01:12:53.463Z,28.20
2019-04-04T01:13:32.406Z,28.20
2019-04-04T01:14:11.189Z,28.20
2019-04-04T01:14:50.043Z,28.20
2019-04-04T01:15:31.080Z,28.20
2019-04-04T01:16:09.001Z,28.20
2019-04-04T01:16:47.755Z,28.20
2019-04-04T01:17:26.548Z,28.20
2019-04-04T01:18:06.161Z,28.20
2019-04-04T01:18:45.481Z,28.20
2019-04-04T01:19:24.275Z,28.20
2019-04-04T01:20:03.082Z,28.20
2019-04-04T01:20:41.902Z,28.20
2019-04-04T01:21:22.191Z,28.20
2019-04-04T01:22:00.741Z,28.20
2019-04-04T01:22:39.568Z,28.20
2019-04-04T01:23:18.398Z,28.20
2019-04-04T01:23:58.418Z,28.20
2019-04-04T01:24:37.372Z,28.20
2019-04-04T01:25:16.166Z,28.20
2019-04-04T01:25:54.976Z,28.20
2019-04-04T01:26:35.170Z,28.20
2019-04-04T01:27:13.888Z,28.20
2019-04-04T01:27:52.647Z,28.20
2019-04-04T01:28:31.445Z,28.20
2019-04-04T01:29:11.031Z,28.20
2019-04-04T01:29:50.043Z,28.20
2019-04-04T01:30:28.772Z,28.20
2019-04-04T01:31:08.795Z,28.30
2019-04-04T01:31:47.602Z,28.30
2019-04-04T01:32:26.432Z,28.30
2019-04-04T01:33:05.364Z,28.30
2019-04-04T01:33:44.099Z,28.30
2019-04-04T01:34:22.833Z,28.30
2019-04-04T01:35:01.600Z,28.30
2019-04-04T01:35:41.018Z,28.30
2019-04-04T01:36:19.849Z,28.30
2019-04-04T01:36:58.701Z,28.30
2019-04-04T01:37:37.505Z,28.40
2019-04-04T01:38:16.330Z,28.40
2019-04-04T01:38:55.966Z,28.40
2019-04-04T01:39:37.104Z,28.40
2019-04-04T01:40:16.609Z,28.40
2019-04-04T01:40:55.451Z,28.40
2019-04-04T01:41:36.160Z,28.40
2019-04-04T01:42:14.334Z,28.40
2019-04-04T01:42:53.057Z,28.40
2019-04-04T01:43:31.862Z,28.40
2019-04-04T01:44:11.321Z,28.40
2019-04-04T01:44:50.609Z,28.40
2019-04-04T01:45:29.428Z,28.40
2019-04-04T01:46:08.178Z,28.40
2019-04-04T01:46:46.881Z,28.40
2019-04-04T01:47:25.596Z,28.40
2019-04-04T01:48:04.411Z,28.40
2019-04-04T01:48:43.226Z,28.40
2019-04-04T01:49:22.115Z,28.40
2019-04-04T01:50:00.845Z,28.50
2019-04-04T01:50:39.640Z,28.50
2019-04-04T01:51:18.406Z,28.50
2019-04-04T01:51:57.907Z,28.50
2019-04-04T01:52:36.762Z,28.50
2019-04-04T01:53:15.531Z,28.50
2019-04-04T01:53:54.296Z,28.50
2019-04-04T01:54:33.057Z,28.50
2019-04-04T01:55:11.926Z,28.50
2019-04-04T01:55:50.679Z,28.50
2019-04-04T01:56:29.515Z,28.50
2019-04-04T01:57:08.763Z,28.50
2019-04-04T01:57:47.590Z,28.50
2019-04-04T01:58:26.319Z,28.60
2019-04-04T01:59:05.082Z,28.60
2019-04-04T01:59:44.457Z,28.60
2019-04-04T02:00:23.371Z,28.60
2019-04-04T02:01:02.133Z,28.60
2019-04-04T02:01:40.928Z,28.60
2019-04-04T02:02:19.882Z,28.60
2019-04-04T02:02:58.606Z,28.60
2019-04-04T02:03:37.387Z,28.60
2019-04-04T02:04:16.550Z,28.60
2019-04-04T02:04:55.945Z,28.60
2019-04-04T02:05:35.287Z,28.60
2019-04-04T02:06:14.098Z,28.60
2019-04-04T02:06:52.858Z,28.60
2019-04-04T02:07:31.571Z,28.60
2019-04-04T02:08:10.347Z,28.60
2019-04-04T02:08:49.132Z,28.60
2019-04-04T02:09:29.116Z,28.60
2019-04-04T02:10:07.988Z,28.60
2019-04-04T02:10:46.772Z,28.60
2019-04-04T02:11:25.482Z,28.60
2019-04-04T02:12:07.465Z,28.60
2019-04-04T02:12:44.332Z,28.60
2019-04-04T02:13:23.071Z,28.60
2019-04-04T02:14:01.869Z,28.70
2019-04-04T02:14:42.870Z,28.60
2019-04-04T02:15:20.778Z,28.70
2019-04-04T02:15:59.577Z,28.70
2019-04-04T02:16:38.371Z,28.70
2019-04-04T02:17:17.113Z,28.70
2019-04-04T02:17:55.897Z,28.70
2019-04-04T02:18:34.604Z,28.70
2019-04-04T02:19:13.393Z,28.70
2019-04-04T02:19:55.454Z,28.70
2019-04-04T02:20:32.173Z,28.70
2019-04-04T02:21:10.966Z,28.70
2019-04-04T02:21:49.729Z,28.70
2019-04-04T02:22:30.612Z,28.70
2019-04-04T02:23:09.337Z,28.70
2019-04-04T02:23:51.516Z,28.70
2019-04-04T02:24:31.787Z,28.70
2019-04-04T02:25:10.903Z,28.70
2019-04-04T02:25:49.648Z,28.70
2019-04-04T02:26:28.411Z,28.70
2019-04-04T02:27:09.085Z,28.70
2019-04-04T02:27:47.466Z,28.70
2019-04-04T02:28:26.213Z,28.70
2019-04-04T02:29:10.698Z,28.70
2019-04-04T02:29:47.791Z,28.70
2019-04-04T02:30:28.774Z,28.80
2019-04-04T02:31:10.748Z,28.80
2019-04-04T02:31:53.740Z,28.80
2019-04-04T02:32:33.752Z,28.80
2019-04-04T02:33:12.654Z,28.80
2019-04-04T02:33:51.419Z,28.70
2019-04-04T02:34:30.192Z,28.80
2019-04-04T02:35:10.701Z,28.70
2019-04-04T02:35:49.183Z,28.80
2019-04-04T02:36:27.964Z,28.80
2019-04-04T02:37:06.847Z,28.90
2019-04-04T02:37:50.405Z,28.90
2019-04-04T02:38:29.163Z,29.00
2019-04-04T02:39:11.597Z,28.90
2019-04-04T02:39:50.378Z,28.90
2019-04-04T02:40:29.090Z,28.90
2019-04-04T02:41:15.046Z,28.90
2019-04-04T02:41:53.317Z,28.90
2019-04-04T02:42:32.054Z,29.00
2019-04-04T02:43:12.053Z,29.00
2019-04-04T02:43:50.849Z,29.00
2019-04-04T02:44:32.078Z,29.00
2019-04-04T02:45:12.929Z,29.00
2019-04-04T02:45:51.277Z,29.10
2019-04-04T02:46:30.022Z,29.00
2019-04-04T02:47:11.721Z,29.00
2019-04-04T02:47:51.391Z,29.00
2019-04-04T02:48:32.798Z,29.00
2019-04-04T02:49:11.563Z,29.00
2019-04-04T02:49:50.345Z,29.00
2019-04-04T02:50:29.239Z,29.00
2019-04-04T02:51:10.620Z,28.90
2019-04-04T02:51:49.452Z,29.00
2019-04-04T02:52:29.823Z,29.00
2019-04-04T02:53:08.741Z,29.00
2019-04-04T02:53:51.832Z,29.10
2019-04-04T02:54:27.739Z,29.10
2019-04-04T02:55:06.606Z,29.10
2019-04-04T02:55:45.453Z,29.10
2019-04-04T02:56:24.356Z,29.10
2019-04-04T02:57:05.649Z,29.10
2019-04-04T02:57:44.130Z,29.10
2019-04-04T02:58:22.934Z,29.10
2019-04-04T02:59:01.752Z,29.20
2019-04-04T02:59:40.516Z,29.20
2019-04-04T03:00:26.365Z,29.20
2019-04-04T03:01:01.964Z,29.10
2019-04-04T03:01:40.854Z,29.10
2019-04-04T03:02:19.707Z,29.10
2019-04-04T03:02:59.768Z,29.20
2019-04-04T03:03:41.143Z,29.10
2019-04-04T03:04:18.779Z,29.10
2019-04-04T03:04:58.723Z,29.10
2019-04-04T03:05:37.565Z,29.10
2019-04-04T03:06:18.190Z,29.10
2019-04-04T03:06:58.480Z,29.10
2019-04-04T03:07:36.802Z,29.20
2019-04-04T03:08:15.545Z,29.20
2019-04-04T03:08:54.311Z,29.20
2019-04-04T03:09:33.108Z,29.20
2019-04-04T03:10:15.262Z,29.20
2019-04-04T03:10:52.039Z,29.30
2019-04-04T03:11:30.808Z,29.30
2019-04-04T03:12:09.675Z,29.30
2019-04-04T03:12:48.448Z,29.30
2019-04-04T03:13:31.231Z,29.30
2019-04-04T03:14:08.366Z,29.30
2019-04-04T03:14:50.429Z,29.30
2019-04-04T03:15:28.404Z,29.30
2019-04-04T03:16:07.261Z,29.30
2019-04-04T03:16:46.055Z,29.30
2019-04-04T03:17:31.543Z,29.40
2019-04-04T03:18:08.221Z,29.40
2019-04-04T03:18:48.233Z,29.40
2019-04-04T03:19:27.007Z,29.40
2019-04-04T03:20:05.673Z,29.40
2019-04-04T03:20:49.041Z,29.40
2019-04-04T03:21:24.750Z,29.40
2019-04-04T03:22:03.985Z,29.40
2019-04-04T03:22:42.729Z,29.40
2019-04-04T03:23:21.469Z,29.40
2019-04-04T03:24:00.331Z,29.40
2019-04-04T03:24:40.400Z,29.40
2019-04-04T03:25:19.031Z,29.50
2019-04-04T03:25:57.689Z,29.50
2019-04-04T03:26:37.424Z,29.50
2019-04-04T03:27:16.209Z,29.40
2019-04-04T03:27:55.448Z,29.50
2019-04-04T03:28:34.962Z,29.50
2019-04-04T03:29:13.637Z,29.50
2019-04-04T03:29:53.732Z,29.60
2019-04-04T03:30:32.405Z,29.50
2019-04-04T03:31:12.181Z,29.60
2019-04-04T03:31:53.347Z,29.60
2019-04-04T03:32:35.527Z,29.60
2019-04-04T03:33:13.756Z,29.60
2019-04-04T03:33:52.547Z,29.60
2019-04-04T03:34:31.164Z,29.60
2019-04-04T03:35:10.168Z,29.60
2019-04-04T03:35:48.939Z,29.60
2019-04-04T03:36:27.658Z,29.60
2019-04-04T03:37:12.373Z,29.50
2019-04-04T03:37:50.813Z,29.50
2019-04-04T03:38:29.541Z,29.50
2019-04-04T03:39:11.066Z,29.60
2019-04-04T03:39:52.981Z,29.60
2019-04-04T03:40:29.858Z,29.50
2019-04-04T03:41:10.158Z,29.50
2019-04-04T03:41:48.821Z,29.50
2019-04-04T03:42:27.520Z,29.60
2019-04-04T03:43:06.259Z,29.50
2019-04-04T03:43:48.103Z,29.60
2019-04-04T03:44:25.167Z,29.60
2019-04-04T03:45:04.096Z,29.60
2019-04-04T03:45:42.851Z,29.60
2019-04-04T03:46:25.621Z,29.60
2019-04-04T03:47:09.775Z,29.60
2019-04-04T03:47:46.941Z,29.60
2019-04-04T03:48:28.302Z,29.60
2019-04-04T03:49:06.944Z,29.60
2019-04-04T03:49:48.074Z,29.60
2019-04-04T03:50:30.285Z,29.60
2019-04-04T03:51:08.066Z,29.70
2019-04-04T03:51:46.943Z,29.60
2019-04-04T03:52:25.704Z,29.60
2019-04-04T03:53:04.522Z,29.60
2019-04-04T03:53:49.305Z,29.60
2019-04-04T03:54:29.420Z,29.60
2019-04-04T03:55:08.582Z,29.70
2019-04-04T03:55:47.277Z,29.70
2019-04-04T03:56:27.287Z,29.70
2019-04-04T03:57:06.150Z,29.60
2019-04-04T03:57:44.964Z,29.70
2019-04-04T03:58:26.890Z,29.60
2019-04-04T03:59:03.742Z,29.60
2019-04-04T03:59:42.453Z,29.50
2019-04-04T04:00:34.514Z,29.50
2019-04-04T04:01:13.416Z,29.50
2019-04-04T04:01:52.204Z,29.60
2019-04-04T04:02:32.307Z,29.60
2019-04-04T04:03:11.048Z,29.60
2019-04-04T04:03:49.756Z,29.60
2019-04-04T04:04:30.367Z,29.60
2019-04-04T04:05:27.189Z,29.60
2019-04-04T04:06:08.695Z,29.60
2019-04-04T04:06:46.177Z,29.70
2019-04-04T04:07:32.817Z,29.70
2019-04-04T04:08:13.363Z,29.70
2019-04-04T04:08:54.778Z,29.70
2019-04-04T04:09:35.177Z,29.60
2019-04-04T04:10:15.139Z,29.60
2019-04-04T04:10:53.934Z,29.60
2019-04-04T04:11:34.680Z,29.60
2019-04-04T04:12:13.814Z,29.70
2019-04-04T04:12:55.403Z,29.70
2019-04-04T04:13:34.164Z,29.80
2019-04-04T04:14:13.532Z,29.80
2019-04-04T04:14:55.956Z,29.80
2019-04-04T04:15:42.454Z,29.70
2019-04-04T04:16:21.106Z,29.70
2019-04-04T04:17:00.779Z,29.60
2019-04-04T04:17:39.557Z,29.60
2019-04-04T04:18:21.750Z,29.60
2019-04-04T04:19:02.854Z,29.50
2019-04-04T04:19:41.579Z,29.60
2019-04-04T04:20:21.321Z,29.50
2019-04-04T04:21:00.161Z,29.50
2019-04-04T04:21:42.908Z,29.50
2019-04-04T04:22:19.566Z,29.50
2019-04-04T04:22:58.332Z,29.50
2019-04-04T04:23:37.090Z,29.60
2019-04-04T04:24:17.791Z,29.70
2019-04-04T04:24:56.518Z,29.70
2019-04-04T04:25:36.455Z,29.70
2019-04-04T04:26:20.358Z,29.70
2019-04-04T04:26:59.731Z,29.60
2019-04-04T04:27:38.512Z,29.60
2019-04-04T04:28:20.087Z,29.70
2019-04-04T04:28:58.180Z,29.70
2019-04-04T04:29:36.996Z,29.60
2019-04-04T04:30:16.610Z,29.60
2019-04-04T04:30:57.106Z,29.60
2019-04-04T04:31:36.874Z,29.60
2019-04-04T04:32:15.649Z,29.60
2019-04-04T04:32:57.816Z,29.60
2019-04-04T04:33:36.637Z,29.70
2019-04-04T04:34:15.897Z,29.70
2019-04-04T04:34:58.865Z,29.80
2019-04-04T04:35:40.546Z,29.90
2019-04-04T04:36:23.371Z,29.90
2019-04-04T04:37:04.748Z,29.90
2019-04-04T04:37:43.503Z,29.90
2019-04-04T04:38:25.595Z,29.90
2019-04-04T04:39:05.643Z,29.90
2019-04-04T04:39:46.853Z,29.90
2019-04-04T04:40:28.001Z,29.80
2019-04-04T04:41:06.996Z,29.80
2019-04-04T04:41:45.642Z,29.80
2019-04-04T04:42:26.672Z,29.80
2019-04-04T04:43:05.993Z,29.80
2019-04-04T04:43:45.839Z,29.80
2019-04-04T04:44:28.306Z,29.80
2019-04-04T04:45:11.094Z,29.90
2019-04-04T04:45:47.578Z,30.00
2019-04-04T04:46:26.597Z,30.10
2019-04-04T04:47:05.706Z,30.10
2019-04-04T04:47:44.669Z,30.10
2019-04-04T04:48:26.007Z,30.20
2019-04-04T04:49:08.044Z,30.20
2019-04-04T04:49:46.444Z,30.10
2019-04-04T04:50:49.337Z,30.10
2019-04-04T04:51:29.150Z,30.10
2019-04-04T04:52:14.196Z,30.10
2019-04-04T04:52:54.408Z,30.10
2019-04-04T04:53:33.326Z,30.20
2019-04-04T04:54:13.538Z,30.20
2019-04-04T04:54:54.599Z,30.20
2019-04-04T04:55:32.431Z,30.20
2019-04-04T04:56:13.333Z,30.20
2019-04-04T04:56:52.182Z,30.20
2019-04-04T04:57:36.629Z,30.10
2019-04-04T04:58:13.818Z,30.10
2019-04-04T04:58:55.331Z,30.00
2019-04-04T04:59:32.765Z,30.00
2019-04-04T05:00:11.542Z,29.90
2019-04-04T05:00:51.717Z,29.90
2019-04-04T05:01:30.594Z,30.00
2019-04-04T05:02:10.058Z,30.00
2019-04-04T05:02:51.015Z,30.10
2019-04-04T05:03:32.650Z,30.20
2019-04-04T05:04:11.496Z,30.10
2019-04-04T05:04:50.305Z,30.10
2019-04-04T05:05:30.990Z,30.10
2019-04-04T05:06:11.213Z,30.10
2019-04-04T05:06:55.131Z,30.10
2019-04-04T05:07:33.941Z,30.20
2019-04-04T05:08:14.136Z,30.10
2019-04-04T05:08:55.476Z,30.30
2019-04-04T05:09:35.256Z,30.40
2019-04-04T05:10:16.323Z,30.50
2019-04-04T05:10:56.358Z,30.60
2019-04-04T05:11:35.223Z,30.60
2019-04-04T05:12:14.059Z,30.60
2019-04-04T05:12:53.045Z,30.70
2019-04-04T05:13:32.570Z,30.70
2019-04-04T05:14:11.480Z,30.80
2019-04-04T05:14:50.259Z,30.80
2019-04-04T05:15:30.403Z,30.80
2019-04-04T05:16:11.506Z,30.70
2019-04-04T05:16:51.967Z,30.60
2019-04-04T05:17:32.476Z,30.50
2019-04-04T05:18:12.059Z,30.60
2019-04-04T05:18:51.278Z,30.60
2019-04-04T05:19:38.585Z,30.60
2019-04-04T05:20:19.833Z,30.50
2019-04-04T05:21:01.848Z,30.50
2019-04-04T05:21:41.512Z,30.50
2019-04-04T05:22:20.331Z,30.60
2019-04-04T05:23:00.455Z,30.60
2019-04-04T05:23:39.214Z,30.60
2019-04-04T05:24:19.178Z,30.60
2019-04-04T05:25:07.953Z,30.70
2019-04-04T05:25:50.618Z,30.60
2019-04-04T05:26:19.111Z,30.60
2019-04-04T05:27:05.956Z,30.60
2019-04-04T05:27:45.188Z,30.50
2019-04-04T05:28:26.628Z,30.50
2019-04-04T05:29:07.576Z,30.40
2019-04-04T05:29:49.379Z,30.40
2019-04-04T05:30:28.254Z,30.40
2019-04-04T05:31:11.921Z,30.30
2019-04-04T05:31:52.421Z,30.30
2019-04-04T05:32:30.910Z,30.20
2019-04-04T05:33:12.171Z,30.20
2019-04-04T05:33:54.689Z,30.20
2019-04-04T05:34:38.616Z,30.20
2019-04-04T05:35:17.395Z,30.20
2019-04-04T05:35:58.887Z,30.20
2019-04-04T05:36:40.700Z,30.20
2019-04-04T05:38:17.708Z,30.20
2019-04-04T05:39:01.187Z,30.40
2019-04-04T05:39:42.640Z,30.50
2019-04-04T05:40:23.475Z,30.60
2019-04-04T05:41:04.384Z,30.60
2019-04-04T05:41:46.309Z,30.60
2019-04-04T05:42:29.164Z,30.50
2019-04-04T05:43:10.826Z,30.50
2019-04-04T05:43:50.096Z,30.40
2019-04-04T05:44:29.363Z,30.40
2019-04-04T05:45:14.251Z,30.30
2019-04-04T05:45:54.715Z,30.30
2019-04-04T05:46:33.702Z,30.30
2019-04-04T05:47:17.806Z,30.40
2019-04-04T05:47:59.738Z,30.30
2019-04-04T05:48:39.497Z,30.40
2019-04-04T05:49:19.013Z,30.40
2019-04-04T05:49:58.579Z,30.40
2019-04-04T05:50:39.103Z,30.50
2019-04-04T05:51:19.372Z,30.60
2019-04-04T05:52:00.125Z,30.60
2019-04-04T05:52:39.219Z,30.60
2019-04-04T05:53:18.014Z,30.60
2019-04-04T05:54:17.755Z,30.50
2019-04-04T05:54:56.600Z,30.50
2019-04-04T05:55:36.652Z,30.40
2019-04-04T05:56:18.789Z,30.40
2019-04-04T05:56:57.940Z,30.40
2019-04-04T05:57:38.610Z,30.40
2019-04-04T05:58:17.010Z,30.30
2019-04-04T05:58:59.527Z,30.30
2019-04-04T05:59:38.390Z,30.30
2019-04-04T06:00:18.575Z,30.30
2019-04-04T06:00:57.802Z,30.30
2019-04-04T06:01:43.320Z,30.30
2019-04-04T06:02:23.978Z,30.30
2019-04-04T06:03:04.171Z,30.30
2019-04-04T06:03:47.036Z,30.30
2019-04-04T06:04:25.395Z,30.40
2019-04-04T06:05:06.043Z,30.50
2019-04-04T06:05:45.598Z,30.50
2019-04-04T06:06:25.550Z,30.50
2019-04-04T06:07:06.824Z,30.50
2019-04-04T06:07:46.337Z,30.50
2019-04-04T06:08:25.049Z,30.50
2019-04-04T06:09:03.907Z,30.50
2019-04-04T06:09:48.446Z,30.50
2019-04-04T06:10:29.203Z,30.40
2019-04-04T06:11:07.998Z,30.40
2019-04-04T06:11:48.743Z,30.40
2019-04-04T06:12:27.693Z,30.40
2019-04-04T06:13:06.891Z,30.40
2019-04-04T06:13:45.933Z,30.40
2019-04-04T06:14:27.985Z,30.40
2019-04-04T06:15:08.155Z,30.30
2019-04-04T06:15:46.959Z,30.30
2019-04-04T06:16:25.837Z,30.30
2019-04-04T06:17:07.859Z,30.30
2019-04-04T06:17:48.568Z,30.30
2019-04-04T06:18:29.953Z,30.30
2019-04-04T06:19:14.123Z,30.40
2019-04-04T06:19:56.357Z,30.40
2019-04-04T06:20:39.111Z,30.40
2019-04-04T06:21:22.674Z,30.40
2019-04-04T06:22:34.637Z,30.30
2019-04-04T06:23:15.585Z,30.40
2019-04-04T06:24:01.802Z,30.40
2019-04-04T06:24:46.195Z,30.50
2019-04-04T06:25:26.979Z,30.50
2019-04-04T06:26:07.756Z,30.50
2019-04-04T06:26:48.112Z,30.50
2019-04-04T06:27:28.570Z,30.50
2019-04-04T06:28:11.615Z,30.50
2019-04-04T06:28:51.493Z,30.50
2019-04-04T06:29:32.902Z,30.50
2019-04-04T06:30:12.775Z,30.50
2019-04-04T06:30:53.813Z,30.50
2019-04-04T06:31:32.037Z,30.50
2019-04-04T06:32:13.406Z,30.60
2019-04-04T06:32:52.157Z,30.60
2019-04-04T06:33:30.908Z,30.60
2019-04-04T06:34:10.942Z,30.60
2019-04-04T06:34:49.808Z,30.60
2019-04-04T06:35:28.641Z,30.60
2019-04-04T06:36:07.466Z,30.60
2019-04-04T06:36:46.989Z,30.60
2019-04-04T06:37:27.415Z,30.60
2019-04-04T06:38:07.471Z,30.60
2019-04-04T06:38:46.337Z,30.60
2019-04-04T06:39:25.713Z,30.50
2019-04-04T06:40:04.670Z,30.50
2019-04-04T06:40:47.380Z,30.50
2019-04-04T06:41:28.184Z,30.50
2019-04-04T06:42:06.359Z,30.50
2019-04-04T06:42:46.917Z,30.50
2019-04-04T06:43:25.358Z,30.50
2019-04-04T06:44:04.081Z,30.50
2019-04-04T06:44:43.972Z,30.50
2019-04-04T06:45:24.549Z,30.50
2019-04-04T06:46:06.353Z,30.60
2019-04-04T06:46:45.229Z,30.60
2019-04-04T06:47:29.121Z,30.60
2019-04-04T06:48:08.806Z,30.60
2019-04-04T06:48:47.560Z,30.50
2019-04-04T06:49:28.724Z,30.50
2019-04-04T06:50:09.084Z,30.50
2019-04-04T06:50:47.981Z,30.50
2019-04-04T06:51:26.759Z,30.50
2019-04-04T06:52:09.252Z,30.50
2019-04-04T06:52:48.284Z,30.50
2019-04-04T06:53:27.092Z,30.50
2019-04-04T06:54:05.838Z,30.50
2019-04-04T06:54:44.633Z,30.50
2019-04-04T06:55:26.428Z,30.40
2019-04-04T06:56:04.784Z,30.50
2019-04-04T06:56:43.595Z,30.50
2019-04-04T06:57:22.452Z,30.50
2019-04-04T06:58:08.383Z,30.40
2019-04-04T06:58:46.099Z,30.50
2019-04-04T06:59:25.265Z,30.50
2019-04-04T07:00:05.134Z,30.50
2019-04-04T07:00:43.892Z,30.40
2019-04-04T07:01:25.205Z,30.50
2019-04-04T07:02:05.062Z,30.50
2019-04-04T07:02:42.924Z,30.40
2019-04-04T07:03:22.985Z,30.50
2019-04-04T07:04:01.772Z,30.50
2019-04-04T07:04:40.617Z,30.50
2019-04-04T07:05:19.368Z,30.60
2019-04-04T07:05:59.520Z,30.50
2019-04-04T07:06:41.602Z,30.50
2019-04-04T07:07:18.445Z,30.50
2019-04-04T07:07:57.269Z,30.50
2019-04-04T07:08:36.029Z,30.50
2019-04-04T07:09:19.017Z,30.50
2019-04-04T07:09:58.981Z,30.50
2019-04-04T07:10:39.123Z,30.50
2019-04-04T07:11:21.442Z,30.50
2019-04-04T07:11:58.062Z,30.50
2019-04-04T07:12:38.169Z,30.50
2019-04-04T07:13:22.050Z,30.50
2019-04-04T07:13:58.925Z,30.50
2019-04-04T07:14:45.484Z,30.50
2019-04-04T07:15:17.456Z,30.50
2019-04-04T07:16:06.012Z,30.50
2019-04-04T07:16:36.814Z,30.50
2019-04-04T07:17:16.448Z,30.50
2019-04-04T07:17:55.441Z,30.50
2019-04-04T07:18:34.231Z,30.50
2019-04-04T07:19:15.013Z,30.50
2019-04-04T07:19:54.328Z,30.50
2019-04-04T07:20:33.194Z,30.50
2019-04-04T07:21:11.864Z,30.50
2019-04-04T07:21:52.036Z,30.50
2019-04-04T07:22:30.882Z,30.50
2019-04-04T07:23:14.154Z,30.50
2019-04-04T07:23:51.531Z,30.50
2019-04-04T07:24:31.139Z,30.50
2019-04-04T07:25:10.713Z,30.50
2019-04-04T07:25:49.437Z,30.50
2019-04-04T07:26:28.250Z,30.50
2019-04-04T07:27:14.203Z,30.50
2019-04-04T07:27:53.614Z,30.50
2019-04-04T07:28:34.737Z,30.50
2019-04-04T07:29:14.996Z,30.50
2019-04-04T07:29:56.537Z,30.50
2019-04-04T07:30:37.098Z,30.50
2019-04-04T07:31:16.171Z,30.50
2019-04-04T07:31:55.143Z,30.50
2019-04-04T07:32:34.517Z,30.60
2019-04-04T07:33:14.109Z,30.60
2019-04-04T07:33:52.868Z,30.60
2019-04-04T07:34:33.413Z,30.60
2019-04-04T07:35:17.185Z,30.60
2019-04-04T07:35:58.225Z,30.60
2019-04-04T07:36:36.694Z,30.70
2019-04-04T07:37:15.476Z,30.70
2019-04-04T07:37:57.284Z,30.70
2019-04-04T07:38:35.082Z,30.70
2019-04-04T07:39:14.570Z,30.70
2019-04-04T07:39:53.301Z,30.70
2019-04-04T07:40:37.076Z,30.70
2019-04-04T07:41:14.777Z,30.70
2019-04-04T07:41:53.195Z,30.70
2019-04-04T07:42:31.928Z,30.70
2019-04-04T07:43:10.674Z,30.70
2019-04-04T07:43:51.449Z,30.70
2019-04-04T07:44:32.422Z,30.70
2019-04-04T07:45:10.927Z,30.70
2019-04-04T07:45:49.682Z,30.70
2019-04-04T07:46:28.472Z,30.70
2019-04-04T07:47:10.206Z,30.70
2019-04-04T07:47:48.966Z,30.70
2019-04-04T07:48:28.901Z,30.70
2019-04-04T07:49:07.671Z,30.70
2019-04-04T07:49:46.409Z,30.80
2019-04-04T07:50:26.389Z,30.70
2019-04-04T07:51:09.280Z,30.80
2019-04-04T07:51:48.001Z,30.80
2019-04-04T07:52:28.935Z,30.80
2019-04-04T07:53:08.993Z,30.80
2019-04-04T07:53:47.765Z,30.80
2019-04-04T07:54:26.524Z,30.80
2019-04-04T07:55:06.226Z,30.90
2019-04-04T07:55:46.316Z,30.90
2019-04-04T07:56:25.104Z,30.90
2019-04-04T07:57:05.135Z,30.90
2019-04-04T07:57:43.882Z,30.90
2019-04-04T07:58:23.963Z,30.90
2019-04-04T07:59:02.869Z,30.80
2019-04-04T07:59:43.139Z,30.80
2019-04-04T08:02:13.734Z,30.80
2019-04-04T08:02:52.510Z,30.90
2019-04-04T08:03:31.624Z,31.00
2019-04-04T08:04:11.055Z,31.10
2019-04-04T08:04:51.458Z,31.10
2019-04-04T08:05:30.208Z,31.10
2019-04-04T08:06:10.581Z,31.10
2019-04-04T08:06:49.948Z,31.10
2019-04-04T08:07:29.298Z,31.10
2019-04-04T08:08:10.719Z,31.10
2019-04-04T08:08:49.273Z,31.10
2019-04-04T08:09:29.636Z,31.10
2019-04-04T08:10:20.380Z,31.00
2019-04-04T08:10:55.274Z,31.00
2019-04-04T08:11:34.605Z,31.00
2019-04-04T08:12:16.734Z,31.00
2019-04-04T08:13:02.343Z,31.00
2019-04-04T08:13:41.164Z,31.00
2019-04-04T08:14:22.480Z,31.00
2019-04-04T08:15:02.956Z,30.90
2019-04-04T08:15:43.076Z,30.90
2019-04-04T08:16:21.892Z,30.90
2019-04-04T08:17:01.070Z,31.00
2019-04-04T08:17:40.730Z,31.00
2019-04-04T08:18:22.849Z,31.10
2019-04-04T08:19:03.100Z,31.30
2019-04-04T08:19:44.309Z,31.40
2019-04-04T08:20:23.285Z,31.40
2019-04-04T08:21:02.373Z,31.30
2019-04-04T08:21:41.210Z,31.40
2019-04-04T08:22:21.835Z,31.50
2019-04-04T08:23:00.532Z,31.50
2019-04-04T08:23:39.962Z,31.60
2019-04-04T08:24:19.139Z,31.50
2019-04-04T08:25:00.177Z,31.50
2019-04-04T08:25:39.693Z,31.40
2019-04-04T08:26:19.602Z,31.40
2019-04-04T08:27:00.363Z,31.40
2019-04-04T08:27:45.090Z,31.30
2019-04-04T08:28:21.161Z,31.30
2019-04-04T08:29:03.671Z,31.30
2019-04-04T08:29:44.705Z,31.30
2019-04-04T08:30:23.017Z,31.30
2019-04-04T08:31:02.158Z,31.40
2019-04-04T08:31:41.443Z,31.50
2019-04-04T08:32:21.816Z,31.50
2019-04-04T08:33:01.074Z,31.50
2019-04-04T08:33:40.318Z,31.40
2019-04-04T08:34:24.551Z,31.40
2019-04-04T08:35:03.330Z,31.30
2019-04-04T08:35:43.325Z,31.40
2019-04-04T08:36:22.095Z,31.40